San Antonio, Florida
Current Conditions -  °F | °C
As of 11:15 AM on Thursday 23 Oct 2014 (Local Time) from KZPH Reporting Station
Clear Clear  
Wind Chill: 75°   Ceiling: Unl
Heat Index: 75°   Visibility: NA
Dew Point: 55°   Wind: 12mph
Humidity: 50%   Direction: 60°ENE
Pressure: 30.03"   Gusts: NA
Location:  28.34°N, 82.27°W
Report Text: KZPH 231515Z AUTO 06010KT CLR 24/13 A3003 RMK AO2 PWINO
Loading
Personal Weather Stations






























Interactive Weather Map
Tropical Storm Tracking
New forecast layout! Learn more

10-Day Weather Forecast

Advertisements
Track Severe Weather on mobile